Time;durP1;ratioP1;P1;durP2;ratioP2;P2;SDS_P1;SDS_P2;PMS_P1;PMS_P2;Temp;Humidity;BMP_temperature;BMP_pressure;BME280_temperature;BME280_humidity;BME280_pressure;Samples;Min_cycle;Max_cycle;Signal;HPM_P1;HPM_P2
2024/04/16 00:00:40;;;;;;;2.03;0.20;;;7.30;73.00;;;;;;5404080;26;20010;-63
2024/04/16 00:03:07;;;;;;;0.63;0.20;;;7.30;73.80;;;;;;5405778;26;19996;-63
2024/04/16 00:05:33;;;;;;;0.40;0.20;;;7.30;74.00;;;;;;5407084;26;20007;-62
2024/04/16 00:07:59;;;;;;;2.38;0.10;;;7.20;74.60;;;;;;5400243;26;19992;-62
2024/04/16 00:10:25;;;;;;;0.43;0.10;;;7.20;74.20;;;;;;5403777;26;19999;-61
2024/04/16 00:12:51;;;;;;;1.02;0.17;;;7.20;74.40;;;;;;5403111;26;19999;-63
2024/04/16 00:15:17;;;;;;;2.45;0.20;;;7.40;74.90;;;;;;5398920;26;20344;-63
2024/04/16 00:17:43;;;;;;;0.70;0.10;;;7.20;74.90;;;;;;5403350;26;20011;-63
2024/04/16 00:20:10;;;;;;;0.90;0.38;;;7.20;74.70;;;;;;5408751;26;20045;-63
2024/04/16 00:22:36;;;;;;;1.15;0.35;;;7.20;74.70;;;;;;5397009;26;19999;-63
2024/04/16 00:25:02;;;;;;;0.80;0.22;;;7.20;74.30;;;;;;5394332;26;20504;-62
2024/04/16 00:27:28;;;;;;;1.67;0.30;;;7.10;74.50;;;;;;5393389;26;19999;-63
2024/04/16 00:29:54;;;;;;;0.40;0.10;;;7.10;75.10;;;;;;5394715;26;20541;-63
2024/04/16 00:32:20;;;;;;;0.68;0.20;;;7.10;74.70;;;;;;5401226;26;19995;-63
2024/04/16 00:34:45;;;;;;;0.88;0.22;;;7.10;74.70;;;;;;5397714;26;20001;-63
2024/04/16 00:37:12;;;;;;;1.45;0.25;;;7.10;75.10;;;;;;5396833;26;19991;-63
2024/04/16 00:39:38;;;;;;;1.23;0.30;;;7.10;75.20;;;;;;5401232;26;20043;-62
2024/04/16 00:42:03;;;;;;;1.20;0.10;;;7.10;75.00;;;;;;5400403;26;20395;-63
2024/04/16 00:44:29;;;;;;;0.85;0.20;;;7.20;75.30;;;;;;5401947;26;19992;-63
2024/04/16 00:46:55;;;;;;;4.32;0.43;;;7.20;75.10;;;;;;5403599;26;19999;-63
2024/04/16 00:49:21;;;;;;;1.70;0.35;;;7.20;75.20;;;;;;5415077;26;19995;-63
2024/04/16 00:51:47;;;;;;;0.82;0.10;;;7.10;75.10;;;;;;5403165;26;20011;-63
2024/04/16 00:54:14;;;;;;;0.85;0.30;;;7.30;75.00;;;;;;5400499;26;20007;-63
2024/04/16 00:56:40;;;;;;;1.17;0.30;;;7.30;74.90;;;;;;5396742;26;19999;-63
2024/04/16 00:59:06;;;;;;;0.47;0.20;;;7.30;74.70;;;;;;5404446;26;20000;-61
2024/04/16 01:01:32;;;;;;;1.35;0.28;;;7.30;74.70;;;;;;5401579;26;20084;-62
2024/04/16 01:03:58;;;;;;;1.13;0.20;;;7.30;74.80;;;;;;5397346;26;19996;-63
2024/04/16 01:06:24;;;;;;;0.73;0.30;;;7.40;74.70;;;;;;5401593;26;20035;-63
2024/04/16 01:08:49;;;;;;;1.55;0.32;;;7.40;74.50;;;;;;5397527;26;20003;-63
2024/04/16 01:11:25;;;;;;;1.30;0.38;;;7.50;74.70;;;;;;5395231;26;20474;-62
2024/04/16 01:13:51;;;;;;;0.95;0.20;;;7.50;74.70;;;;;;5413176;26;19995;-62
2024/04/16 01:16:19;;;;;;;0.68;0.30;;;7.50;74.50;;;;;;5406182;26;20000;-64
2024/04/16 01:18:45;;;;;;;1.67;0.45;;;7.50;74.80;;;;;;5412647;26;20451;-63
2024/04/16 01:21:11;;;;;;;0.93;0.28;;;7.60;74.60;;;;;;5409777;26;20018;-63
2024/04/16 01:23:36;;;;;;;3.10;0.35;;;7.60;74.50;;;;;;5409787;26;20000;-63
2024/04/16 01:26:02;;;;;;;1.13;0.22;;;7.60;74.30;;;;;;5408284;26;20014;-63
2024/04/16 01:28:27;;;;;;;0.60;0.30;;;7.60;74.40;;;;;;5401775;26;20007;-63
2024/04/16 01:30:53;;;;;;;2.50;0.40;;;7.60;74.50;;;;;;5403142;26;20027;-63
2024/04/16 01:33:18;;;;;;;0.88;0.40;;;7.60;74.40;;;;;;5384527;26;20351;-63
2024/04/16 01:35:44;;;;;;;5.50;0.88;;;7.60;74.50;;;;;;5393447;26;19995;-63
2024/04/16 01:38:10;;;;;;;1.85;0.30;;;7.60;74.60;;;;;;5403431;26;19996;-63
2024/04/16 01:40:35;;;;;;;3.03;0.47;;;7.60;74.50;;;;;;5398870;26;20000;-63
2024/04/16 01:43:01;;;;;;;2.25;0.45;;;7.50;74.40;;;;;;5378896;26;20312;-62
2024/04/16 01:45:26;;;;;;;1.10;0.40;;;7.50;74.40;;;;;;5397756;26;20003;-63
2024/04/16 01:47:52;;;;;;;1.55;0.45;;;7.50;74.50;;;;;;5396962;26;20073;-63
2024/04/16 01:50:18;;;;;;;4.15;0.40;;;7.40;74.40;;;;;;5407708;26;20382;-63
2024/04/16 01:52:43;;;;;;;1.60;0.40;;;7.40;74.70;;;;;;5401082;26;20015;-63
2024/04/16 01:55:09;;;;;;;3.33;0.50;;;7.40;75.40;;;;;;5403479;26;20019;-62
2024/04/16 01:57:35;;;;;;;2.13;0.50;;;7.40;74.60;;;;;;5402272;26;20007;-63
2024/04/16 02:00:02;;;;;;;2.95;0.50;;;7.40;74.70;;;;;;5399331;26;20442;-63
2024/04/16 02:02:28;;;;;;;2.63;0.40;;;7.40;74.50;;;;;;5402973;26;20003;-63
2024/04/16 02:04:54;;;;;;;2.85;0.30;;;7.40;74.80;;;;;;5404210;26;19992;-63
2024/04/16 02:07:20;;;;;;;3.17;0.60;;;7.40;74.70;;;;;;5392184;26;20041;-63
2024/04/16 02:09:46;;;;;;;3.50;0.50;;;7.30;74.60;;;;;;5399487;26;20375;-63
2024/04/16 02:12:11;;;;;;;3.10;0.65;;;7.30;74.80;;;;;;5405534;26;20003;-63
2024/04/16 02:14:37;;;;;;;2.35;0.38;;;7.30;74.70;;;;;;5403354;26;20000;-62
2024/04/16 02:17:03;;;;;;;3.80;0.52;;;7.30;74.70;;;;;;5401038;26;20505;-63
2024/04/16 02:19:28;;;;;;;3.47;0.40;;;7.30;75.10;;;;;;5404931;26;20011;-62
2024/04/16 02:21:54;;;;;;;1.50;0.77;;;7.30;75.00;;;;;;5399614;26;20032;-63
2024/04/16 02:24:21;;;;;;;2.22;0.43;;;7.30;74.90;;;;;;5402429;26;19997;-63
2024/04/16 02:26:46;;;;;;;3.65;0.50;;;7.30;74.90;;;;;;5405063;26;20003;-62
2024/04/16 02:29:12;;;;;;;1.50;0.50;;;7.30;74.70;;;;;;5406604;26;20000;-63
2024/04/16 02:31:37;;;;;;;2.50;0.57;;;7.30;75.60;;;;;;5399526;26;20064;-63
2024/04/16 02:34:03;;;;;;;2.33;0.50;;;7.30;74.70;;;;;;5402775;26;20475;-64
2024/04/16 02:36:29;;;;;;;1.27;0.35;;;7.30;74.70;;;;;;5404530;26;20007;-63
2024/04/16 02:38:54;;;;;;;2.10;0.47;;;7.20;74.80;;;;;;5405691;26;19999;-63
2024/04/16 02:41:20;;;;;;;2.33;0.40;;;7.20;74.80;;;;;;5410289;26;19999;-63
2024/04/16 02:43:45;;;;;;;1.65;0.38;;;7.20;75.00;;;;;;5406612;26;19995;-63
2024/04/16 02:46:11;;;;;;;1.10;0.43;;;7.20;75.10;;;;;;5403802;26;20007;-63
2024/04/16 02:48:36;;;;;;;3.40;0.52;;;7.20;75.30;;;;;;5402423;26;20347;-63
2024/04/16 02:51:02;;;;;;;2.88;0.75;;;7.10;75.10;;;;;;5404164;26;20064;-63
2024/04/16 02:53:28;;;;;;;2.35;0.40;;;7.10;75.20;;;;;;5402273;26;20069;-62
2024/04/16 02:55:54;;;;;;;2.28;0.40;;;7.10;75.40;;;;;;5404897;26;20007;-62
2024/04/16 02:58:21;;;;;;;2.45;0.50;;;7.10;75.50;;;;;;5408384;26;20000;-63
2024/04/16 03:00:47;;;;;;;1.63;0.47;;;7.20;75.80;;;;;;5397772;26;22038;-63
2024/04/16 03:03:13;;;;;;;2.72;0.50;;;7.00;75.50;;;;;;5401604;26;20006;-63
2024/04/16 03:05:38;;;;;;;4.20;0.60;;;7.00;75.60;;;;;;5406502;26;20324;-62
2024/04/16 03:08:04;;;;;;;0.73;0.43;;;6.90;75.70;;;;;;5403578;26;20009;-62
2024/04/16 03:10:30;;;;;;;3.00;0.47;;;6.90;76.00;;;;;;5397826;26;20031;-63
2024/04/16 03:12:55;;;;;;;1.33;0.38;;;6.90;75.90;;;;;;5401801;26;20023;-63
2024/04/16 03:15:21;;;;;;;2.33;0.60;;;6.80;75.70;;;;;;5403148;26;20408;-62
2024/04/16 03:17:46;;;;;;;3.10;0.40;;;6.80;76.30;;;;;;5407583;26;19999;-62
2024/04/16 03:20:12;;;;;;;1.20;0.30;;;6.80;76.50;;;;;;5400648;26;20079;-63
2024/04/16 03:22:38;;;;;;;0.73;0.30;;;6.70;76.50;;;;;;5408561;26;19995;-63
2024/04/16 03:25:03;;;;;;;1.38;0.50;;;6.70;76.70;;;;;;5403382;26;20007;-62
2024/04/16 03:27:29;;;;;;;0.68;0.30;;;6.70;77.10;;;;;;5400086;26;20356;-63
2024/04/16 03:29:55;;;;;;;0.77;0.10;;;6.70;77.20;;;;;;5393440;26;20081;-63
2024/04/16 03:32:21;;;;;;;2.50;0.40;;;6.60;77.30;;;;;;5392740;26;20475;-63
2024/04/16 03:34:46;;;;;;;1.42;0.30;;;6.70;77.30;;;;;;5395712;26;19991;-63
2024/04/16 03:37:12;;;;;;;0.75;0.28;;;6.70;77.30;;;;;;5395435;26;20234;-63
2024/04/16 03:39:38;;;;;;;1.27;0.30;;;6.70;77.10;;;;;;5400836;26;20015;-62
2024/04/16 03:42:03;;;;;;;1.80;0.30;;;6.70;77.30;;;;;;5393511;26;20588;-62
2024/04/16 03:44:29;;;;;;;1.92;0.40;;;6.60;77.40;;;;;;5393310;26;20019;-63
2024/04/16 03:46:56;;;;;;;1.88;0.50;;;6.60;77.70;;;;;;5396481;26;20515;-63
2024/04/16 03:49:21;;;;;;;0.82;0.38;;;6.60;77.90;;;;;;5396069;26;20353;-62
2024/04/16 03:51:47;;;;;;;1.83;0.30;;;6.60;78.00;;;;;;5394062;26;19999;-62
2024/04/16 03:54:13;;;;;;;0.63;0.25;;;6.60;77.80;;;;;;5393219;26;20010;-63
2024/04/16 03:56:38;;;;;;;1.42;0.28;;;6.60;78.10;;;;;;5361863;26;20000;-63
2024/04/16 03:59:26;;;;;;;0.93;0.45;;;6.60;78.40;;;;;;5374620;26;20336;-63
2024/04/16 04:01:52;;;;;;;1.25;0.30;;;6.60;78.10;;;;;;5394761;26;19996;-63
2024/04/16 04:04:18;;;;;;;0.30;0.15;;;6.60;78.20;;;;;;5398260;26;20018;-62
2024/04/16 04:06:43;;;;;;;0.35;0.20;;;6.60;78.20;;;;;;5393907;26;20073;-63
2024/04/16 04:09:09;;;;;;;0.93;0.35;;;6.60;78.40;;;;;;5393374;26;20449;-63
2024/04/16 04:11:35;;;;;;;0.63;0.28;;;6.60;78.40;;;;;;5401518;26;20011;-62
2024/04/16 04:14:00;;;;;;;0.60;0.40;;;6.70;78.40;;;;;;5401807;26;20010;-62
2024/04/16 04:16:26;;;;;;;0.88;0.40;;;6.70;78.30;;;;;;5401223;26;20000;-62
2024/04/16 04:18:52;;;;;;;0.50;0.30;;;6.70;78.70;;;;;;5392333;26;20085;-62
2024/04/16 04:21:18;;;;;;;1.00;0.30;;;6.70;78.70;;;;;;5397970;26;20011;-62
2024/04/16 04:23:44;;;;;;;3.53;0.20;;;6.70;78.80;;;;;;5390249;26;20070;-61
2024/04/16 04:26:09;;;;;;;0.65;0.30;;;6.70;78.90;;;;;;5393914;26;20491;-60
2024/04/16 04:28:35;;;;;;;1.42;0.50;;;6.70;79.10;;;;;;5394456;26;20008;-62
2024/04/16 04:31:22;;;;;;;0.93;0.30;;;6.70;78.90;;;;;;5406530;26;19991;-62
2024/04/16 04:33:48;;;;;;;1.35;0.30;;;6.70;79.50;;;;;;5407210;26;19995;-62
2024/04/16 04:36:14;;;;;;;1.73;0.52;;;6.80;78.60;;;;;;5408053;26;20085;-62
2024/04/16 04:38:40;;;;;;;0.77;0.30;;;6.70;78.50;;;;;;5396640;26;20339;-63
2024/04/16 04:41:08;;;;;;;0.73;0.30;;;6.70;78.70;;;;;;5413111;26;20011;-62
2024/04/16 04:43:34;;;;;;;0.90;0.30;;;6.70;78.70;;;;;;5405479;26;20564;-62
2024/04/16 04:46:00;;;;;;;0.73;0.30;;;6.70;78.60;;;;;;5403723;26;19996;-62
2024/04/16 04:48:25;;;;;;;2.58;0.40;;;6.70;78.70;;;;;;5410842;26;20466;-62
2024/04/16 04:50:51;;;;;;;2.55;0.32;;;6.70;78.90;;;;;;5416093;26;20000;-62
2024/04/16 04:53:17;;;;;;;2.28;0.30;;;6.70;78.80;;;;;;5413204;26;19995;-63
2024/04/16 04:55:42;;;;;;;0.60;0.22;;;6.70;78.70;;;;;;5419465;26;20427;-63
2024/04/16 04:58:08;;;;;;;2.58;0.30;;;6.60;78.70;;;;;;5400063;26;20015;-61
2024/04/16 05:00:33;;;;;;;1.60;0.40;;;6.60;78.80;;;;;;5404927;26;20474;-63
2024/04/16 05:02:59;;;;;;;2.55;0.70;;;6.70;79.30;;;;;;5409722;26;20072;-62
2024/04/16 05:05:24;;;;;;;1.65;0.50;;;6.70;79.50;;;;;;5413470;26;20029;-62
2024/04/16 05:07:50;;;;;;;1.98;0.47;;;6.60;79.30;;;;;;5408930;26;20008;-63
2024/04/16 05:10:16;;;;;;;1.02;0.45;;;6.70;79.40;;;;;;5401609;26;20059;-62
2024/04/16 05:12:41;;;;;;;1.58;0.50;;;6.60;79.40;;;;;;5408935;26;19999;-63
2024/04/16 05:15:08;;;;;;;1.02;0.32;;;6.70;79.30;;;;;;5402419;26;19996;-62
2024/04/16 05:17:34;;;;;;;0.95;0.50;;;6.70;79.40;;;;;;5406933;26;20068;-62
2024/04/16 05:19:59;;;;;;;2.95;0.68;;;6.70;79.40;;;;;;5415181;26;20007;-62
2024/04/16 05:22:25;;;;;;;3.05;0.60;;;6.80;80.40;;;;;;5413334;26;20000;-63
2024/04/16 05:24:51;;;;;;;0.93;0.40;;;6.80;79.50;;;;;;5402595;26;20458;-63
2024/04/16 05:27:16;;;;;;;1.52;0.35;;;6.80;79.60;;;;;;5405215;26;20006;-62
2024/04/16 05:29:42;;;;;;;1.15;0.55;;;6.80;79.60;;;;;;5405988;26;19995;-62
2024/04/16 05:32:12;;;;;;;1.60;0.60;;;6.90;79.50;;;;;;5413991;26;19995;-62
2024/04/16 05:34:38;;;;;;;2.53;0.60;;;6.90;79.40;;;;;;5412998;26;20037;-62
2024/04/16 05:37:04;;;;;;;2.78;0.90;;;6.90;79.50;;;;;;5415917;26;20551;-63
2024/04/16 05:39:29;;;;;;;3.78;0.60;;;6.90;79.40;;;;;;5409123;26;19996;-61
2024/04/16 05:41:55;;;;;;;1.02;0.43;;;6.90;79.40;;;;;;5406941;26;20364;-62
2024/04/16 05:44:20;;;;;;;3.08;0.68;;;6.90;79.30;;;;;;5399669;26;20000;-63
2024/04/16 05:46:47;;;;;;;0.80;0.57;;;7.00;79.30;;;;;;5386961;26;20153;-62
2024/04/16 05:49:14;;;;;;;1.70;0.60;;;7.00;79.00;;;;;;5403367;26;20448;-63
2024/04/16 05:51:39;;;;;;;1.95;0.43;;;7.00;79.00;;;;;;5410564;26;20015;-63
2024/04/16 05:54:06;;;;;;;2.40;0.52;;;7.00;79.00;;;;;;5407301;26;20010;-62
2024/04/16 05:56:34;;;;;;;1.50;0.40;;;7.10;78.90;;;;;;5404973;26;20003;-62
2024/04/16 05:59:00;;;;;;;2.83;0.63;;;7.10;78.90;;;;;;5401203;26;19992;-63
2024/04/16 06:01:26;;;;;;;0.95;0.40;;;7.10;78.60;;;;;;5405746;26;20014;-63
2024/04/16 06:03:52;;;;;;;1.77;0.50;;;7.10;78.40;;;;;;5404302;26;20072;-63
2024/04/16 06:06:18;;;;;;;1.67;0.30;;;7.10;78.40;;;;;;5408657;26;20015;-62
2024/04/16 06:08:43;;;;;;;1.25;0.50;;;7.10;78.20;;;;;;5409239;26;19999;-63
2024/04/16 06:11:09;;;;;;;0.80;0.30;;;7.20;78.10;;;;;;5407808;26;20478;-63
2024/04/16 06:13:35;;;;;;;0.93;0.40;;;7.20;77.90;;;;;;5405602;26;20425;-63
2024/04/16 06:16:00;;;;;;;1.65;0.50;;;7.20;78.00;;;;;;5404829;26;19996;-62
2024/04/16 06:18:27;;;;;;;1.80;0.60;;;7.30;78.30;;;;;;5404920;26;20325;-63
2024/04/16 06:20:53;;;;;;;1.42;0.50;;;7.30;78.50;;;;;;5409573;26;19999;-63
2024/04/16 06:23:19;;;;;;;3.45;0.60;;;7.30;78.70;;;;;;5403061;26;20072;-63
2024/04/16 06:25:45;;;;;;;2.92;0.50;;;7.30;78.60;;;;;;5405621;26;20035;-62
2024/04/16 06:28:11;;;;;;;1.50;0.57;;;7.40;78.70;;;;;;5403124;26;19999;-63
2024/04/16 06:30:36;;;;;;;1.42;0.60;;;7.40;78.60;;;;;;5403711;26;20002;-63
2024/04/16 06:33:02;;;;;;;4.88;0.85;;;7.40;78.40;;;;;;5408801;26;20023;-62
2024/04/16 06:35:27;;;;;;;3.05;0.80;;;7.40;78.60;;;;;;5402285;26;20011;-63
2024/04/16 06:37:53;;;;;;;2.05;0.80;;;7.50;78.60;;;;;;5409133;26;20545;-63
2024/04/16 06:40:18;;;;;;;1.45;0.80;;;7.50;78.50;;;;;;5425559;26;20031;-63
2024/04/16 06:42:44;;;;;;;1.60;0.90;;;7.50;78.50;;;;;;5418443;26;19991;-63
2024/04/16 06:45:10;;;;;;;2.22;0.88;;;7.50;78.50;;;;;;5405656;26;20007;-63
2024/04/16 06:47:36;;;;;;;4.75;0.82;;;7.60;78.50;;;;;;5411510;26;20062;-63
2024/04/16 06:50:02;;;;;;;3.17;0.90;;;7.60;78.60;;;;;;5408464;26;20014;-63
2024/04/16 06:52:29;;;;;;;1.63;0.68;;;7.70;78.40;;;;;;5406161;26;20003;-63
2024/04/16 06:54:55;;;;;;;2.05;0.75;;;7.70;78.30;;;;;;5416838;26;20006;-63
2024/04/16 06:57:20;;;;;;;2.78;0.70;;;7.70;78.20;;;;;;5405748;26;19995;-62
2024/04/16 06:59:46;;;;;;;3.72;0.70;;;7.70;77.90;;;;;;5408088;26;20125;-63
2024/04/16 07:02:11;;;;;;;3.70;1.00;;;7.80;78.70;;;;;;5412696;26;20339;-63
2024/04/16 07:04:37;;;;;;;2.45;0.80;;;7.80;77.90;;;;;;5415037;26;20024;-63
2024/04/16 07:07:03;;;;;;;3.97;0.85;;;7.80;77.70;;;;;;5416410;26;20399;-63
2024/04/16 07:09:28;;;;;;;2.45;0.90;;;7.80;77.40;;;;;;5404569;26;20033;-63
2024/04/16 07:11:54;;;;;;;1.55;0.75;;;7.90;77.50;;;;;;5409375;26;20018;-63
2024/04/16 07:14:19;;;;;;;3.72;0.90;;;7.90;77.30;;;;;;5415275;26;20013;-62
2024/04/16 07:16:45;;;;;;;4.57;1.00;;;7.90;77.00;;;;;;5398918;26;20000;-63
2024/04/16 07:19:11;;;;;;;2.75;0.80;;;8.00;76.80;;;;;;5414592;26;19999;-63
2024/04/16 07:21:36;;;;;;;2.45;0.82;;;8.00;76.70;;;;;;5409131;26;19995;-63
2024/04/16 07:24:02;;;;;;;5.47;1.02;;;8.00;76.60;;;;;;5407395;26;20033;-62
2024/04/16 07:26:28;;;;;;;2.20;0.80;;;8.00;76.30;;;;;;5411870;26;20309;-63
2024/04/16 07:28:53;;;;;;;4.32;0.82;;;8.00;76.10;;;;;;5403429;26;20065;-62
2024/04/16 07:31:19;;;;;;;3.65;0.90;;;8.00;75.60;;;;;;5408592;26;20014;-63
2024/04/16 07:33:44;;;;;;;2.63;0.98;;;8.00;75.30;;;;;;5404157;26;19997;-63
2024/04/16 07:36:11;;;;;;;3.78;0.68;;;8.10;75.40;;;;;;5403450;26;20014;-63
2024/04/16 07:38:37;;;;;;;5.93;0.90;;;8.10;75.20;;;;;;5409216;26;20006;-63
2024/04/16 07:41:03;;;;;;;2.28;0.60;;;8.10;74.90;;;;;;5410468;26;20002;-64
2024/04/16 07:43:29;;;;;;;2.85;0.95;;;8.10;74.60;;;;;;5414492;26;20338;-63
2024/04/16 07:45:54;;;;;;;4.75;0.98;;;8.10;74.00;;;;;;5407578;26;20023;-63
2024/04/16 07:48:20;;;;;;;2.22;0.70;;;8.10;73.90;;;;;;5404531;26;19999;-63
2024/04/16 07:50:49;;;;;;;3.05;0.70;;;8.10;72.90;;;;;;5413638;26;20011;-63
2024/04/16 07:53:15;;;;;;;1.83;0.57;;;8.20;73.40;;;;;;5411471;26;19995;-63
2024/04/16 07:55:42;;;;;;;7.38;1.67;;;8.30;73.40;;;;;;5417924;26;20011;-63
2024/04/16 07:58:07;;;;;;;3.78;0.75;;;8.20;72.80;;;;;;5405361;26;20008;-63
2024/04/16 08:00:33;;;;;;;5.80;0.90;;;8.30;73.20;;;;;;5401495;26;20019;-63
2024/04/16 08:02:59;;;;;;;3.90;0.88;;;8.40;73.00;;;;;;5405973;26;19999;-63
2024/04/16 08:05:24;;;;;;;4.78;0.90;;;8.40;73.00;;;;;;5419430;26;19998;-63
2024/04/16 08:07:50;;;;;;;5.35;0.93;;;8.50;73.00;;;;;;5422571;26;20003;-63
2024/04/16 08:10:16;;;;;;;3.40;1.27;;;8.50;73.30;;;;;;5405089;26;20089;-63
2024/04/16 08:12:42;;;;;;;5.68;1.30;;;8.60;71.10;;;;;;5405122;26;20366;-64
2024/04/16 08:15:07;;;;;;;3.05;1.85;;;8.60;70.70;;;;;;5399151;26;20037;-62
2024/04/16 08:17:33;;;;;;;4.13;1.05;;;8.70;71.60;;;;;;5407990;26;19995;-63
2024/04/16 08:19:59;;;;;;;4.03;1.20;;;8.80;71.70;;;;;;5413565;26;20010;-63
2024/04/16 08:22:25;;;;;;;4.78;1.00;;;8.80;72.00;;;;;;5406591;26;19996;-63
2024/04/16 08:24:51;;;;;;;3.15;0.90;;;8.90;70.70;;;;;;5408001;26;19991;-62
2024/04/16 08:27:19;;;;;;;4.70;0.80;;;8.90;70.70;;;;;;5405506;26;20010;-63
2024/04/16 08:29:45;;;;;;;2.92;0.80;;;9.00;70.20;;;;;;5401084;26;19996;-62
2024/04/16 08:32:11;;;;;;;2.35;1.08;;;9.00;69.70;;;;;;5410138;26;20343;-63
2024/04/16 08:34:40;;;;;;;5.60;1.13;;;9.10;68.60;;;;;;5402730;26;19995;-62
2024/04/16 08:37:06;;;;;;;2.33;0.75;;;9.20;67.10;;;;;;5406465;26;20046;-61
2024/04/16 08:39:33;;;;;;;4.63;0.80;;;9.20;67.00;;;;;;5405859;26;20011;-62
2024/04/16 08:42:02;;;;;;;5.57;1.60;;;9.20;65.30;;;;;;5408157;26;20459;-61
2024/04/16 08:44:29;;;;;;;2.55;0.63;;;9.30;65.50;;;;;;5406961;26;20014;-64
2024/04/16 08:46:59;;;;;;;3.45;0.82;;;9.30;66.60;;;;;;5413285;26;20022;-62
2024/04/16 08:49:28;;;;;;;2.63;0.65;;;9.40;66.20;;;;;;5397793;26;20067;-63
2024/04/16 08:51:57;;;;;;;4.78;0.73;;;9.50;66.80;;;;;;5402500;26;19996;-63
2024/04/16 08:54:24;;;;;;;3.35;0.70;;;9.50;66.60;;;;;;5402407;26;20057;-62
2024/04/16 08:56:50;;;;;;;3.78;1.00;;;9.60;66.60;;;;;;5406161;26;19999;-61
2024/04/16 08:59:16;;;;;;;2.55;0.77;;;9.70;66.60;;;;;;5403663;26;20004;-63
2024/04/16 09:01:44;;;;;;;3.13;0.68;;;9.80;66.00;;;;;;5418737;26;20013;-62
2024/04/16 09:04:10;;;;;;;4.13;1.08;;;9.90;65.10;;;;;;5406983;26;19995;-62
2024/04/16 09:06:36;;;;;;;1.40;0.60;;;10.00;65.50;;;;;;5405752;26;19992;-63
2024/04/16 09:09:02;;;;;;;2.85;0.55;;;10.10;62.30;;;;;;5408430;26;19996;-62
2024/04/16 09:11:28;;;;;;;2.63;0.73;;;10.20;61.60;;;;;;5418334;26;20063;-62
2024/04/16 09:13:56;;;;;;;3.03;0.70;;;10.20;61.10;;;;;;5415084;26;20004;-63
2024/04/16 09:16:23;;;;;;;3.40;0.70;;;10.30;60.60;;;;;;5418448;26;20011;-61
2024/04/16 09:18:48;;;;;;;2.45;0.50;;;10.30;61.20;;;;;;5407241;26;19999;-63
2024/04/16 09:21:14;;;;;;;4.88;0.80;;;10.30;60.50;;;;;;5414215;26;20000;-63
2024/04/16 09:23:41;;;;;;;1.67;0.60;;;10.40;60.60;;;;;;5407550;26;19993;-62
2024/04/16 09:26:13;;;;;;;3.45;0.60;;;10.40;61.40;;;;;;5417184;26;20450;-63
2024/04/16 09:28:47;;;;;;;6.28;0.70;;;10.50;60.30;;;;;;5416026;26;20455;-63
2024/04/16 09:31:16;;;;;;;2.33;0.63;;;10.60;60.40;;;;;;5409946;26;20068;-63
2024/04/16 09:33:42;;;;;;;2.88;0.90;;;10.70;61.10;;;;;;5408674;26;20007;-62
2024/04/16 09:36:14;;;;;;;2.13;0.50;;;10.70;59.40;;;;;;5410947;26;20162;-63
2024/04/16 09:38:44;;;;;;;2.40;0.60;;;10.80;59.30;;;;;;5406607;26;19996;-63
2024/04/16 09:41:13;;;;;;;1.13;0.55;;;10.90;59.40;;;;;;5412429;26;19995;-63
2024/04/16 09:43:40;;;;;;;1.85;0.35;;;10.90;58.90;;;;;;5417024;26;20339;-62
2024/04/16 09:46:08;;;;;;;1.25;0.47;;;10.90;59.40;;;;;;5408421;26;20000;-63
2024/04/16 09:48:38;;;;;;;1.73;0.52;;;11.00;59.60;;;;;;5409936;26;20010;-64
2024/04/16 09:51:05;;;;;;;1.20;0.45;;;11.10;59.90;;;;;;5411382;26;20007;-63
2024/04/16 09:53:34;;;;;;;2.55;0.38;;;11.20;58.90;;;;;;5415646;26;19995;-63
2024/04/16 09:56:03;;;;;;;2.08;0.32;;;11.20;58.90;;;;;;5416756;26;20475;-63
2024/04/16 09:58:28;;;;;;;1.25;0.38;;;11.40;57.50;;;;;;5412219;26;20449;-63
2024/04/16 10:00:54;;;;;;;1.65;0.40;;;11.40;56.40;;;;;;5408576;26;19991;-64
2024/04/16 10:03:21;;;;;;;1.85;0.40;;;11.50;57.10;;;;;;5408938;26;20546;-63
2024/04/16 10:05:47;;;;;;;1.60;0.38;;;11.50;56.80;;;;;;5406972;26;20003;-62
2024/04/16 10:08:13;;;;;;;4.35;0.40;;;11.60;55.80;;;;;;5414330;26;20019;-63
2024/04/16 10:10:39;;;;;;;0.82;0.32;;;11.60;55.50;;;;;;5409460;26;20007;-62
2024/04/16 10:13:05;;;;;;;2.50;0.30;;;11.60;56.00;;;;;;5409668;26;20039;-63
2024/04/16 10:15:32;;;;;;;2.42;0.47;;;11.60;55.40;;;;;;5403001;26;19995;-63
2024/04/16 10:17:58;;;;;;;2.92;0.30;;;11.60;55.60;;;;;;5411318;26;20463;-63
2024/04/16 10:20:28;;;;;;;2.85;0.38;;;11.60;56.80;;;;;;5399552;26;20007;-63
2024/04/16 10:22:58;;;;;;;1.52;0.40;;;11.70;57.20;;;;;;5405882;26;20536;-63
2024/04/16 10:25:32;;;;;;;3.28;0.93;;;11.70;56.80;;;;;;5458175;26;20021;-63
2024/04/16 10:28:00;;;;;;;2.90;0.40;;;11.70;56.10;;;;;;5407945;26;20015;-64
2024/04/16 10:30:35;;;;;;;2.28;0.55;;;11.70;56.80;;;;;;5400761;26;19991;-63
2024/04/16 10:33:01;;;;;;;4.05;0.57;;;11.80;56.00;;;;;;5405105;26;20011;-63
2024/04/16 10:35:28;;;;;;;3.72;0.40;;;11.80;56.90;;;;;;5405561;26;19999;-63
2024/04/16 10:37:55;;;;;;;3.03;0.50;;;11.80;57.10;;;;;;5410257;26;20040;-63
2024/04/16 10:40:30;;;;;;;4.32;0.50;;;11.80;57.40;;;;;;5410162;26;20015;-63
2024/04/16 10:42:58;;;;;;;3.67;0.38;;;11.80;57.70;;;;;;5420505;26;20019;-63
2024/04/16 10:45:23;;;;;;;2.75;0.40;;;11.80;58.10;;;;;;5416603;26;20006;-63
2024/04/16 10:47:50;;;;;;;1.15;0.30;;;11.80;57.10;;;;;;5405725;26;20483;-63
2024/04/16 10:50:15;;;;;;;1.40;0.30;;;11.70;56.30;;;;;;5404664;26;20034;-62
2024/04/16 10:52:41;;;;;;;1.40;0.30;;;11.70;56.50;;;;;;5409167;26;20003;-63
2024/04/16 10:55:07;;;;;;;1.38;0.35;;;11.70;56.00;;;;;;5411159;26;20000;-63
2024/04/16 10:57:32;;;;;;;2.22;0.40;;;11.70;55.40;;;;;;5414475;26;20031;-63
2024/04/16 10:59:58;;;;;;;2.08;0.40;;;11.70;56.70;;;;;;5406828;26;20007;-64
2024/04/16 11:02:25;;;;;;;2.30;0.30;;;11.80;56.80;;;;;;5402115;26;20010;-62
2024/04/16 11:04:50;;;;;;;1.33;0.40;;;11.80;56.90;;;;;;5412398;26;20459;-62
2024/04/16 11:07:16;;;;;;;2.22;0.40;;;11.90;56.90;;;;;;5416656;26;19996;-62
2024/04/16 11:09:42;;;;;;;0.70;0.30;;;11.90;56.50;;;;;;5407795;26;20003;-63
2024/04/16 11:12:08;;;;;;;3.00;0.40;;;12.10;57.00;;;;;;5407556;26;19992;-63
2024/04/16 11:14:34;;;;;;;2.70;0.52;;;12.10;56.10;;;;;;5410234;26;20406;-61
2024/04/16 11:17:03;;;;;;;1.88;0.50;;;12.10;56.10;;;;;;5407740;26;20035;-63
2024/04/16 11:19:29;;;;;;;5.20;0.40;;;12.20;55.50;;;;;;5423428;26;20062;-64
2024/04/16 11:21:55;;;;;;;2.28;0.43;;;12.30;55.90;;;;;;5403700;26;20180;-62
2024/04/16 11:24:22;;;;;;;0.75;0.30;;;12.30;55.90;;;;;;5397820;26;20008;-62
2024/04/16 11:26:48;;;;;;;4.05;0.40;;;12.40;55.50;;;;;;5405651;26;20007;-60
2024/04/16 11:29:20;;;;;;;2.75;0.52;;;12.40;54.80;;;;;;5405001;26;20342;-62
2024/04/16 11:31:46;;;;;;;1.98;0.50;;;12.40;54.50;;;;;;5403244;26;20072;-60
2024/04/16 11:34:12;;;;;;;2.00;0.43;;;12.30;54.50;;;;;;5405285;26;20004;-63
2024/04/16 11:36:48;;;;;;;0.75;0.30;;;12.30;55.20;;;;;;5408317;26;20485;-63
2024/04/16 11:39:13;;;;;;;0.60;0.30;;;12.30;54.80;;;;;;5405428;26;20015;-62
2024/04/16 11:41:39;;;;;;;2.30;0.52;;;12.20;55.10;;;;;;5413252;26;19999;-61
2024/04/16 11:44:05;;;;;;;2.80;0.50;;;12.30;55.50;;;;;;5403768;26;20617;-62
2024/04/16 11:46:31;;;;;;;2.40;0.50;;;12.20;55.40;;;;;;5408921;26;19995;-63
2024/04/16 11:48:56;;;;;;;4.20;0.40;;;12.20;55.50;;;;;;5408427;26;20332;-61
2024/04/16 11:51:22;;;;;;;1.48;0.50;;;12.20;55.10;;;;;;5407235;26;19991;-62
2024/04/16 11:53:48;;;;;;;2.75;0.60;;;12.10;55.50;;;;;;5413527;26;20013;-63
2024/04/16 11:56:13;;;;;;;3.85;0.50;;;12.10;55.80;;;;;;5415360;26;19996;-63
2024/04/16 11:58:39;;;;;;;28.30;0.93;;;12.10;56.20;;;;;;5398551;26;20455;-63
2024/04/16 12:01:05;;;;;;;2.00;0.43;;;12.10;56.50;;;;;;5406923;26;19995;-61
2024/04/16 12:03:31;;;;;;;1.63;0.40;;;12.00;56.70;;;;;;5412387;26;19998;-61
2024/04/16 12:05:56;;;;;;;1.60;0.57;;;12.10;56.70;;;;;;5408605;26;20011;-63
2024/04/16 12:08:22;;;;;;;3.85;0.70;;;12.00;57.10;;;;;;5423897;26;20429;-62
2024/04/16 12:10:48;;;;;;;1.45;0.40;;;11.90;56.10;;;;;;5407353;26;20010;-63
2024/04/16 12:13:13;;;;;;;1.95;0.52;;;11.90;56.20;;;;;;5404856;26;20433;-62
2024/04/16 12:15:39;;;;;;;1.23;0.70;;;11.90;56.40;;;;;;5409032;26;20010;-63
2024/04/16 12:18:05;;;;;;;2.42;0.45;;;11.90;56.70;;;;;;5413768;26;19996;-63
2024/04/16 12:20:31;;;;;;;3.08;0.43;;;12.00;56.90;;;;;;5420544;26;20028;-62
2024/04/16 12:22:56;;;;;;;3.78;0.57;;;12.10;57.00;;;;;;5404813;26;20328;-63
2024/04/16 12:25:22;;;;;;;5.43;0.63;;;12.10;56.90;;;;;;5414276;26;19995;-62
2024/04/16 12:27:47;;;;;;;2.15;0.40;;;12.20;56.10;;;;;;5423507;26;20458;-63
2024/04/16 12:30:13;;;;;;;1.25;0.38;;;12.30;56.00;;;;;;5413963;26;20022;-63
2024/04/16 12:32:39;;;;;;;2.38;0.47;;;12.40;55.80;;;;;;5400128;26;20003;-62
2024/04/16 12:35:04;;;;;;;3.03;0.38;;;12.40;54.70;;;;;;5410760;26;20007;-62
2024/04/16 12:37:30;;;;;;;1.58;0.52;;;12.40;55.50;;;;;;5413078;26;20475;-62
2024/04/16 12:39:56;;;;;;;1.30;0.40;;;12.40;54.80;;;;;;5424464;26;20081;-62
2024/04/16 12:42:21;;;;;;;2.03;0.38;;;12.40;54.50;;;;;;5413549;26;20000;-62
2024/04/16 12:44:47;;;;;;;1.02;0.45;;;12.40;54.80;;;;;;5412397;26;19999;-61
2024/04/16 12:47:12;;;;;;;2.10;0.50;;;12.40;54.30;;;;;;5423542;26;20042;-63